sensor_id;sensor_type;location;lat;lon;timestamp;noise_LAeq;noise_LA_min;noise_LA_max;noise_LA01;noise_LA95
50333;Laerm;36239;48.132;-1.210;2023-07-29T00:01:00;38.05;33.44;51.26;;
50333;Laerm;36239;48.132;-1.210;2023-07-29T00:03:27;39.84;33.44;45.20;;
50333;Laerm;36239;48.132;-1.210;2023-07-29T00:05:53;37.91;32.93;49.30;;
50333;Laerm;36239;48.132;-1.210;2023-07-29T00:08:19;37.61;33.44;42.47;;
50333;Laerm;36239;48.132;-1.210;2023-07-29T00:10:45;37.76;33.44;42.03;;
50333;Laerm;36239;48.132;-1.210;2023-07-29T00:13:11;38.14;33.44;44.47;;
50333;Laerm;36239;48.132;-1.210;2023-07-29T00:15:37;39.15;33.90;45.07;;
50333;Laerm;36239;48.132;-1.210;2023-07-29T00:18:03;38.10;33.90;42.90;;
50333;Laerm;36239;48.132;-1.210;2023-07-29T00:20:29;37.66;33.44;41.06;;
50333;Laerm;36239;48.132;-1.210;2023-07-29T00:22:55;37.68;32.93;44.51;;
50333;Laerm;36239;48.132;-1.210;2023-07-29T00:25:21;38.07;33.90;46.18;;
50333;Laerm;36239;48.132;-1.210;2023-07-29T00:27:47;38.14;33.44;43.68;;
50333;Laerm;36239;48.132;-1.210;2023-07-29T00:30:13;37.92;33.44;55.41;;
50333;Laerm;36239;48.132;-1.210;2023-07-29T00:32:39;37.72;32.93;49.18;;
50333;Laerm;36239;48.132;-1.210;2023-07-29T00:35:05;37.57;33.44;48.45;;
50333;Laerm;36239;48.132;-1.210;2023-07-29T00:37:32;39.08;33.44;63.12;;
50333;Laerm;36239;48.132;-1.210;2023-07-29T00:39:58;37.69;32.35;49.87;;
50333;Laerm;36239;48.132;-1.210;2023-07-29T00:42:24;38.21;32.35;43.14;;
50333;Laerm;36239;48.132;-1.210;2023-07-29T00:44:50;37.61;32.93;43.09;;
50333;Laerm;36239;48.132;-1.210;2023-07-29T00:47:16;37.86;33.44;48.31;;
50333;Laerm;36239;48.132;-1.210;2023-07-29T00:49:43;38.21;33.44;49.92;;
50333;Laerm;36239;48.132;-1.210;2023-07-29T00:52:09;38.05;33.44;49.07;;
50333;Laerm;36239;48.132;-1.210;2023-07-29T00:54:41;38.09;33.44;48.52;;
50333;Laerm;36239;48.132;-1.210;2023-07-29T00:57:08;38.69;32.93;61.04;;
50333;Laerm;36239;48.132;-1.210;2023-07-29T00:59:35;38.48;33.90;43.77;;
50333;Laerm;36239;48.132;-1.210;2023-07-29T01:02:01;37.22;32.93;47.28;;
50333;Laerm;36239;48.132;-1.210;2023-07-29T01:04:27;37.44;32.93;42.29;;
50333;Laerm;36239;48.132;-1.210;2023-07-29T01:06:58;37.56;33.90;43.04;;
50333;Laerm;36239;48.132;-1.210;2023-07-29T01:09:31;37.60;33.44;42.09;;
50333;Laerm;36239;48.132;-1.210;2023-07-29T01:14:36;37.69;32.93;44.58;;
50333;Laerm;36239;48.132;-1.210;2023-07-29T01:17:05;37.48;33.44;42.09;;
50333;Laerm;36239;48.132;-1.210;2023-07-29T01:19:43;37.36;33.44;42.53;;
50333;Laerm;36239;48.132;-1.210;2023-07-29T01:22:14;37.40;33.90;41.53;;
50333;Laerm;36239;48.132;-1.210;2023-07-29T01:24:41;37.33;32.35;41.61;;
50333;Laerm;36239;48.132;-1.210;2023-07-29T01:27:07;37.54;31.68;41.06;;
50333;Laerm;36239;48.132;-1.210;2023-07-29T01:29:33;37.48;32.93;43.34;;
50333;Laerm;36239;48.132;-1.210;2023-07-29T01:32:01;37.31;32.35;43.09;;
50333;Laerm;36239;48.132;-1.210;2023-07-29T01:34:31;37.42;33.44;49.04;;
50333;Laerm;36239;48.132;-1.210;2023-07-29T01:36:58;37.28;33.44;41.68;;
50333;Laerm;36239;48.132;-1.210;2023-07-29T01:39:25;37.26;33.44;42.03;;
50333;Laerm;36239;48.132;-1.210;2023-07-29T01:41:53;37.67;32.35;50.46;;
50333;Laerm;36239;48.132;-1.210;2023-07-29T01:44:19;37.25;32.35;43.63;;
50333;Laerm;36239;48.132;-1.210;2023-07-29T01:46:46;37.63;33.44;42.09;;
50333;Laerm;36239;48.132;-1.210;2023-07-29T01:49:12;38.16;32.93;49.06;;
50333;Laerm;36239;48.132;-1.210;2023-07-29T01:51:38;37.31;32.93;41.61;;
50333;Laerm;36239;48.132;-1.210;2023-07-29T01:54:04;37.57;32.93;49.32;;
50333;Laerm;36239;48.132;-1.210;2023-07-29T01:56:30;37.38;32.93;41.14;;
50333;Laerm;36239;48.132;-1.210;2023-07-29T01:58:56;38.46;33.90;48.21;;
50333;Laerm;36239;48.132;-1.210;2023-07-29T02:01:22;37.49;32.93;41.33;;
50333;Laerm;36239;48.132;-1.210;2023-07-29T02:03:48;37.31;33.44;42.22;;
50333;Laerm;36239;48.132;-1.210;2023-07-29T02:06:21;38.42;33.44;42.71;;
50333;Laerm;36239;48.132;-1.210;2023-07-29T02:08:47;37.29;32.35;41.46;;
50333;Laerm;36239;48.132;-1.210;2023-07-29T02:11:13;37.30;32.93;42.09;;
50333;Laerm;36239;48.132;-1.210;2023-07-29T02:13:38;37.53;33.44;44.07;;
50333;Laerm;36239;48.132;-1.210;2023-07-29T02:16:04;37.38;32.35;41.41;;
50333;Laerm;36239;48.132;-1.210;2023-07-29T02:18:30;37.40;33.44;42.41;;
50333;Laerm;36239;48.132;-1.210;2023-07-29T02:20:56;37.32;32.35;41.82;;
50333;Laerm;36239;48.132;-1.210;2023-07-29T02:23:22;37.65;32.93;46.48;;
50333;Laerm;36239;48.132;-1.210;2023-07-29T02:25:48;37.87;33.44;43.44;;
50333;Laerm;36239;48.132;-1.210;2023-07-29T02:28:15;37.82;33.44;43.77;;
50333;Laerm;36239;48.132;-1.210;2023-07-29T02:30:42;37.77;32.93;48.56;;
50333;Laerm;36239;48.132;-1.210;2023-07-29T02:33:10;38.05;33.44;43.28;;
50333;Laerm;36239;48.132;-1.210;2023-07-29T02:35:36;37.78;32.35;42.16;;
50333;Laerm;36239;48.132;-1.210;2023-07-29T02:38:02;38.30;32.93;44.80;;
50333;Laerm;36239;48.132;-1.210;2023-07-29T02:40:31;37.33;32.93;42.09;;
50333;Laerm;36239;48.132;-1.210;2023-07-29T02:42:57;37.50;33.44;45.23;;
50333;Laerm;36239;48.132;-1.210;2023-07-29T02:45:23;37.44;32.58;41.68;;
50333;Laerm;36239;48.132;-1.210;2023-07-29T02:47:49;37.49;32.93;42.41;;
50333;Laerm;36239;48.132;-1.210;2023-07-29T02:50:15;37.61;33.44;41.46;;
50333;Laerm;36239;48.132;-1.210;2023-07-29T02:52:41;37.62;32.35;41.89;;
50333;Laerm;36239;48.132;-1.210;2023-07-29T02:55:07;37.78;33.44;45.45;;
50333;Laerm;36239;48.132;-1.210;2023-07-29T02:57:33;37.85;32.93;58.64;;
50333;Laerm;36239;48.132;-1.210;2023-07-29T02:59:59;38.80;32.93;61.75;;
50333;Laerm;36239;48.132;-1.210;2023-07-29T03:02:25;38.46;32.00;54.88;;
50333;Laerm;36239;48.132;-1.210;2023-07-29T03:04:51;37.89;33.44;56.36;;
50333;Laerm;36239;48.132;-1.210;2023-07-29T03:07:17;37.58;33.44;41.61;;
50333;Laerm;36239;48.132;-1.210;2023-07-29T03:09:43;37.84;32.93;47.59;;
50333;Laerm;36239;48.132;-1.210;2023-07-29T03:12:10;37.81;32.93;47.68;;
50333;Laerm;36239;48.132;-1.210;2023-07-29T03:14:36;37.88;32.93;48.87;;
50333;Laerm;36239;48.132;-1.210;2023-07-29T03:17:02;37.51;32.93;47.06;;
50333;Laerm;36239;48.132;-1.210;2023-07-29T03:19:29;37.71;32.58;43.04;;
50333;Laerm;36239;48.132;-1.210;2023-07-29T03:21:56;37.82;32.93;48.66;;
50333;Laerm;36239;48.132;-1.210;2023-07-29T03:24:22;37.76;32.93;47.30;;
50333;Laerm;36239;48.132;-1.210;2023-07-29T03:26:48;37.92;33.44;52.19;;
50333;Laerm;36239;48.132;-1.210;2023-07-29T03:29:14;37.82;33.90;41.06;;
50333;Laerm;36239;48.132;-1.210;2023-07-29T03:31:40;37.85;33.44;42.82;;
50333;Laerm;36239;48.132;-1.210;2023-07-29T03:34:06;38.99;33.90;60.18;;
50333;Laerm;36239;48.132;-1.210;2023-07-29T03:36:32;37.63;33.44;40.98;;
50333;Laerm;36239;48.132;-1.210;2023-07-29T03:38:58;37.72;33.44;48.20;;
50333;Laerm;36239;48.132;-1.210;2023-07-29T03:41:24;38.53;33.44;65.68;;
50333;Laerm;36239;48.132;-1.210;2023-07-29T03:43:50;37.81;33.90;41.38;;
50333;Laerm;36239;48.132;-1.210;2023-07-29T03:46:16;38.04;33.90;44.62;;
50333;Laerm;36239;48.132;-1.210;2023-07-29T03:48:45;38.42;34.31;49.81;;
50333;Laerm;36239;48.132;-1.210;2023-07-29T03:51:11;48.64;35.36;72.98;;
50333;Laerm;36239;48.132;-1.210;2023-07-29T03:53:37;38.72;34.69;53.80;;
50333;Laerm;36239;48.132;-1.210;2023-07-29T03:56:03;39.46;34.69;55.69;;
50333;Laerm;36239;48.132;-1.210;2023-07-29T03:58:30;42.40;38.18;53.05;;
50333;Laerm;36239;48.132;-1.210;2023-07-29T04:00:57;46.71;38.37;55.23;;
50333;Laerm;36239;48.132;-1.210;2023-07-29T04:03:23;45.56;40.62;52.28;;
50333;Laerm;36239;48.132;-1.210;2023-07-29T04:05:49;42.09;38.52;50.56;;
50333;Laerm;36239;48.132;-1.210;2023-07-29T04:08:15;42.15;38.67;51.63;;
50333;Laerm;36239;48.132;-1.210;2023-07-29T04:10:41;40.95;37.12;49.88;;
50333;Laerm;36239;48.132;-1.210;2023-07-29T04:13:07;40.46;35.66;59.00;;
50333;Laerm;36239;48.132;-1.210;2023-07-29T04:15:33;43.26;35.04;62.13;;
50333;Laerm;36239;48.132;-1.210;2023-07-29T04:17:59;42.57;34.69;63.07;;
50333;Laerm;36239;48.132;-1.210;2023-07-29T04:20:25;42.34;34.31;59.44;;
50333;Laerm;36239;48.132;-1.210;2023-07-29T04:22:51;38.13;34.69;45.54;;
50333;Laerm;36239;48.132;-1.210;2023-07-29T04:25:17;39.18;35.04;45.28;;
50333;Laerm;36239;48.132;-1.210;2023-07-29T04:27:43;39.55;33.44;56.68;;
50333;Laerm;36239;48.132;-1.210;2023-07-29T04:30:09;37.82;33.44;50.56;;
50333;Laerm;36239;48.132;-1.210;2023-07-29T04:32:35;38.07;34.31;45.07;;
50333;Laerm;36239;48.132;-1.210;2023-07-29T04:35:01;42.37;36.45;49.92;;
50333;Laerm;36239;48.132;-1.210;2023-07-29T04:37:27;38.13;34.31;43.99;;
50333;Laerm;36239;48.132;-1.210;2023-07-29T04:39:53;37.76;33.90;42.82;;
50333;Laerm;36239;48.132;-1.210;2023-07-29T04:42:19;38.80;33.90;60.14;;
50333;Laerm;36239;48.132;-1.210;2023-07-29T04:44:45;37.82;33.90;48.94;;
50333;Laerm;36239;48.132;-1.210;2023-07-29T04:47:11;38.26;33.44;54.70;;
50333;Laerm;36239;48.132;-1.210;2023-07-29T04:49:37;37.77;32.35;43.19;;
50333;Laerm;36239;48.132;-1.210;2023-07-29T04:52:03;38.24;33.97;43.86;;
50333;Laerm;36239;48.132;-1.210;2023-07-29T04:54:29;38.31;34.69;44.15;;
50333;Laerm;36239;48.132;-1.210;2023-07-29T04:56:55;38.16;33.90;50.58;;
50333;Laerm;36239;48.132;-1.210;2023-07-29T04:59:21;39.12;33.44;49.41;;
50333;Laerm;36239;48.132;-1.210;2023-07-29T05:01:47;38.31;34.31;46.69;;
50333;Laerm;36239;48.132;-1.210;2023-07-29T05:04:13;37.97;34.31;53.81;;
50333;Laerm;36239;48.132;-1.210;2023-07-29T05:06:40;38.93;33.44;46.45;;
50333;Laerm;36239;48.132;-1.210;2023-07-29T05:09:15;40.01;34.31;51.81;;
50333;Laerm;36239;48.132;-1.210;2023-07-29T05:11:41;38.19;32.93;51.47;;
50333;Laerm;36239;48.132;-1.210;2023-07-29T05:14:09;38.03;33.90;41.68;;
50333;Laerm;36239;48.132;-1.210;2023-07-29T05:16:35;38.18;32.93;46.64;;
50333;Laerm;36239;48.132;-1.210;2023-07-29T05:19:01;38.03;33.90;44.38;;
50333;Laerm;36239;48.132;-1.210;2023-07-29T05:21:27;37.83;33.90;47.72;;
50333;Laerm;36239;48.132;-1.210;2023-07-29T05:23:53;38.31;33.90;46.40;;
50333;Laerm;36239;48.132;-1.210;2023-07-29T05:26:19;40.16;34.69;47.95;;
50333;Laerm;36239;48.132;-1.210;2023-07-29T05:28:45;39.35;35.66;50.23;;
50333;Laerm;36239;48.132;-1.210;2023-07-29T05:31:11;39.59;36.20;52.62;;
50333;Laerm;36239;48.132;-1.210;2023-07-29T05:33:37;40.12;35.94;51.45;;
50333;Laerm;36239;48.132;-1.210;2023-07-29T05:36:03;39.28;35.36;48.00;;
50333;Laerm;36239;48.132;-1.210;2023-07-29T05:38:29;39.38;35.36;47.02;;
50333;Laerm;36239;48.132;-1.210;2023-07-29T05:40:55;39.34;35.04;51.60;;
50333;Laerm;36239;48.132;-1.210;2023-07-29T05:43:21;39.21;34.69;53.68;;
50333;Laerm;36239;48.132;-1.210;2023-07-29T05:45:47;39.74;34.69;62.83;;
50333;Laerm;36239;48.132;-1.210;2023-07-29T05:48:13;39.02;34.69;46.66;;
50333;Laerm;36239;48.132;-1.210;2023-07-29T05:50:39;38.14;33.90;47.77;;
50333;Laerm;36239;48.132;-1.210;2023-07-29T05:53:05;38.63;33.90;49.38;;
50333;Laerm;36239;48.132;-1.210;2023-07-29T05:55:31;38.45;33.90;44.23;;
50333;Laerm;36239;48.132;-1.210;2023-07-29T05:57:57;38.39;34.31;48.00;;
50333;Laerm;36239;48.132;-1.210;2023-07-29T06:00:23;38.27;34.31;47.18;;
50333;Laerm;36239;48.132;-1.210;2023-07-29T06:02:49;38.72;34.69;45.91;;
50333;Laerm;36239;48.132;-1.210;2023-07-29T06:05:15;40.56;34.69;55.98;;
50333;Laerm;36239;48.132;-1.210;2023-07-29T06:07:41;41.88;35.94;58.86;;
50333;Laerm;36239;48.132;-1.210;2023-07-29T06:10:13;42.60;35.66;55.86;;
50333;Laerm;36239;48.132;-1.210;2023-07-29T06:12:40;39.38;34.31;56.05;;
50333;Laerm;36239;48.132;-1.210;2023-07-29T06:15:06;45.41;34.69;69.18;;
50333;Laerm;36239;48.132;-1.210;2023-07-29T06:17:32;39.38;34.31;58.51;;
50333;Laerm;36239;48.132;-1.210;2023-07-29T06:19:58;38.82;35.01;53.20;;
50333;Laerm;36239;48.132;-1.210;2023-07-29T06:22:24;42.41;35.04;57.95;;
50333;Laerm;36239;48.132;-1.210;2023-07-29T06:24:50;44.66;35.04;70.89;;
50333;Laerm;36239;48.132;-1.210;2023-07-29T06:27:16;41.32;34.69;67.55;;
50333;Laerm;36239;48.132;-1.210;2023-07-29T06:29:45;43.95;34.69;65.21;;
50333;Laerm;36239;48.132;-1.210;2023-07-29T06:32:11;40.86;35.04;61.41;;
50333;Laerm;36239;48.132;-1.210;2023-07-29T06:34:37;38.54;34.31;53.44;;
50333;Laerm;36239;48.132;-1.210;2023-07-29T06:37:03;40.28;34.31;57.62;;
50333;Laerm;36239;48.132;-1.210;2023-07-29T06:39:29;38.79;34.31;48.13;;
50333;Laerm;36239;48.132;-1.210;2023-07-29T06:41:55;40.34;34.69;56.71;;
50333;Laerm;36239;48.132;-1.210;2023-07-29T06:44:21;39.62;35.04;44.49;;
50333;Laerm;36239;48.132;-1.210;2023-07-29T06:46:47;42.99;34.31;62.61;;
50333;Laerm;36239;48.132;-1.210;2023-07-29T06:49:13;42.64;35.36;66.13;;
50333;Laerm;36239;48.132;-1.210;2023-07-29T06:51:38;39.27;35.36;53.86;;
50333;Laerm;36239;48.132;-1.210;2023-07-29T06:54:04;39.03;34.69;47.55;;
50333;Laerm;36239;48.132;-1.210;2023-07-29T06:56:30;39.17;34.69;62.04;;
50333;Laerm;36239;48.132;-1.210;2023-07-29T06:58:56;39.18;34.69;53.99;;
50333;Laerm;36239;48.132;-1.210;2023-07-29T07:01:22;41.62;34.69;60.63;;
50333;Laerm;36239;48.132;-1.210;2023-07-29T07:03:48;39.22;35.04;48.05;;
50333;Laerm;36239;48.132;-1.210;2023-07-29T07:06:14;39.77;35.36;62.67;;
50333;Laerm;36239;48.132;-1.210;2023-07-29T07:08:40;39.55;35.94;45.36;;
50333;Laerm;36239;48.132;-1.210;2023-07-29T07:11:07;50.71;36.45;80.57;;
50333;Laerm;36239;48.132;-1.210;2023-07-29T07:13:33;44.10;36.20;71.48;;
50333;Laerm;36239;48.132;-1.210;2023-07-29T07:15:59;40.76;36.20;57.98;;
50333;Laerm;36239;48.132;-1.210;2023-07-29T07:18:25;48.48;35.36;78.58;;
50333;Laerm;36239;48.132;-1.210;2023-07-29T07:20:51;40.90;35.94;59.63;;
50333;Laerm;36239;48.132;-1.210;2023-07-29T07:23:18;42.09;35.66;62.60;;
50333;Laerm;36239;48.132;-1.210;2023-07-29T07:25:44;40.77;36.69;60.95;;
50333;Laerm;36239;48.132;-1.210;2023-07-29T07:28:10;39.39;35.94;49.00;;
50333;Laerm;36239;48.132;-1.210;2023-07-29T07:30:39;40.05;35.66;48.31;;
50333;Laerm;36239;48.132;-1.210;2023-07-29T07:33:05;39.30;34.31;52.70;;
50333;Laerm;36239;48.132;-1.210;2023-07-29T07:35:31;39.17;35.66;44.51;;
50333;Laerm;36239;48.132;-1.210;2023-07-29T07:37:57;41.56;35.66;67.37;;
50333;Laerm;36239;48.132;-1.210;2023-07-29T07:40:24;39.75;35.66;44.47;;
50333;Laerm;36239;48.132;-1.210;2023-07-29T07:42:50;46.78;36.91;76.84;;
50333;Laerm;36239;48.132;-1.210;2023-07-29T07:45:16;41.86;36.45;58.31;;
50333;Laerm;36239;48.132;-1.210;2023-07-29T07:47:43;40.93;36.91;55.53;;
50333;Laerm;36239;48.132;-1.210;2023-07-29T07:50:09;40.36;36.45;56.92;;
50333;Laerm;36239;48.132;-1.210;2023-07-29T07:52:35;40.67;36.91;57.21;;
50333;Laerm;36239;48.132;-1.210;2023-07-29T07:55:01;42.96;36.69;63.66;;
50333;Laerm;36239;48.132;-1.210;2023-07-29T07:57:27;41.69;37.12;61.97;;
50333;Laerm;36239;48.132;-1.210;2023-07-29T07:59:53;40.44;36.91;52.21;;
50333;Laerm;36239;48.132;-1.210;2023-07-29T08:02:19;47.34;36.69;76.39;;
50333;Laerm;36239;48.132;-1.210;2023-07-29T08:04:46;40.76;36.69;58.90;;
50333;Laerm;36239;48.132;-1.210;2023-07-29T08:07:12;43.30;36.69;68.75;;
50333;Laerm;36239;48.132;-1.210;2023-07-29T08:09:39;50.97;37.70;77.17;;
50333;Laerm;36239;48.132;-1.210;2023-07-29T08:12:05;41.25;37.52;55.38;;
50333;Laerm;36239;48.132;-1.210;2023-07-29T08:14:31;45.90;36.69;69.95;;
50333;Laerm;36239;48.132;-1.210;2023-07-29T08:16:58;40.68;36.20;56.09;;
50333;Laerm;36239;48.132;-1.210;2023-07-29T08:19:24;42.53;36.91;66.68;;
50333;Laerm;36239;48.132;-1.210;2023-07-29T08:21:50;39.92;35.94;58.33;;
50333;Laerm;36239;48.132;-1.210;2023-07-29T08:24:17;45.12;36.69;73.82;;
50333;Laerm;36239;48.132;-1.210;2023-07-29T08:26:43;46.42;36.91;73.70;;
50333;Laerm;36239;48.132;-1.210;2023-07-29T08:29:09;41.38;35.94;63.60;;
50333;Laerm;36239;48.132;-1.210;2023-07-29T08:31:35;42.77;35.94;67.63;;
50333;Laerm;36239;48.132;-1.210;2023-07-29T08:34:01;48.84;35.66;76.41;;
50333;Laerm;36239;48.132;-1.210;2023-07-29T08:36:27;44.47;35.66;70.10;;
50333;Laerm;36239;48.132;-1.210;2023-07-29T08:38:53;43.83;35.94;63.32;;
50333;Laerm;36239;48.132;-1.210;2023-07-29T08:41:19;45.95;36.20;71.73;;
50333;Laerm;36239;48.132;-1.210;2023-07-29T08:43:50;51.67;37.52;74.75;;
50333;Laerm;36239;48.132;-1.210;2023-07-29T08:46:19;46.56;36.69;71.34;;
50333;Laerm;36239;48.132;-1.210;2023-07-29T08:48:45;48.73;37.88;71.37;;
50333;Laerm;36239;48.132;-1.210;2023-07-29T08:51:12;53.80;38.05;79.58;;
50333;Laerm;36239;48.132;-1.210;2023-07-29T08:53:38;55.92;37.12;85.63;;
50333;Laerm;36239;48.132;-1.210;2023-07-29T08:56:05;47.83;36.20;74.98;;
50333;Laerm;36239;48.132;-1.210;2023-07-29T08:58:31;55.33;37.12;81.66;;
50333;Laerm;36239;48.132;-1.210;2023-07-29T09:00:57;47.56;36.45;73.68;;
50333;Laerm;36239;48.132;-1.210;2023-07-29T09:03:23;52.36;37.52;85.82;;
50333;Laerm;36239;48.132;-1.210;2023-07-29T09:05:49;40.72;37.32;50.24;;
50333;Laerm;36239;48.132;-1.210;2023-07-29T09:08:16;41.90;35.94;62.52;;
50333;Laerm;36239;48.132;-1.210;2023-07-29T09:10:43;53.11;37.52;77.59;;
50333;Laerm;36239;48.132;-1.210;2023-07-29T09:13:09;51.09;37.52;84.40;;
50333;Laerm;36239;48.132;-1.210;2023-07-29T09:15:36;45.16;37.32;68.22;;
50333;Laerm;36239;48.132;-1.210;2023-07-29T09:18:09;53.10;38.37;67.34;;
50333;Laerm;36239;48.132;-1.210;2023-07-29T09:20:36;48.41;37.70;74.28;;
50333;Laerm;36239;48.132;-1.210;2023-07-29T09:23:02;67.54;36.91;81.30;;
50333;Laerm;36239;48.132;-1.210;2023-07-29T09:25:28;69.18;41.14;80.54;;
50333;Laerm;36239;48.132;-1.210;2023-07-29T09:28:01;59.79;37.70;82.01;;
50333;Laerm;36239;48.132;-1.210;2023-07-29T09:30:27;55.65;37.32;72.68;;
50333;Laerm;36239;48.132;-1.210;2023-07-29T09:32:57;66.38;36.91;86.92;;
50333;Laerm;36239;48.132;-1.210;2023-07-29T09:35:23;48.95;38.37;70.92;;
50333;Laerm;36239;48.132;-1.210;2023-07-29T09:37:50;42.34;37.88;60.04;;
50333;Laerm;36239;48.132;-1.210;2023-07-29T09:40:17;47.63;38.02;68.95;;
50333;Laerm;36239;48.132;-1.210;2023-07-29T09:42:50;48.52;37.12;68.15;;
50333;Laerm;36239;48.132;-1.210;2023-07-29T09:45:23;57.69;37.88;74.79;;
50333;Laerm;36239;48.132;-1.210;2023-07-29T09:47:50;57.04;38.21;79.11;;
50333;Laerm;36239;48.132;-1.210;2023-07-29T09:50:16;57.99;38.21;73.00;;
50333;Laerm;36239;48.132;-1.210;2023-07-29T09:52:42;45.10;37.32;60.44;;
50333;Laerm;36239;48.132;-1.210;2023-07-29T09:55:12;52.05;36.45;86.67;;
50333;Laerm;36239;48.132;-1.210;2023-07-29T09:57:38;46.10;37.32;65.60;;
50333;Laerm;36239;48.132;-1.210;2023-07-29T10:00:05;46.36;36.45;70.25;;
50333;Laerm;36239;48.132;-1.210;2023-07-29T10:02:45;47.62;37.12;61.82;;
50333;Laerm;36239;48.132;-1.210;2023-07-29T10:05:11;54.28;37.87;78.98;;
50333;Laerm;36239;48.132;-1.210;2023-07-29T10:07:38;52.86;37.32;81.08;;
50333;Laerm;36239;48.132;-1.210;2023-07-29T10:10:04;50.17;37.52;77.57;;
50333;Laerm;36239;48.132;-1.210;2023-07-29T10:12:31;47.28;37.88;61.88;;
50333;Laerm;36239;48.132;-1.210;2023-07-29T10:15:02;46.55;38.21;69.18;;
50333;Laerm;36239;48.132;-1.210;2023-07-29T10:17:28;47.03;37.32;68.71;;
50333;Laerm;36239;48.132;-1.210;2023-07-29T10:19:55;49.87;36.77;77.93;;
50333;Laerm;36239;48.132;-1.210;2023-07-29T10:22:22;56.48;36.69;77.27;;
50333;Laerm;36239;48.132;-1.210;2023-07-29T10:24:50;44.46;36.69;70.99;;
50333;Laerm;36239;48.132;-1.210;2023-07-29T10:27:17;40.59;35.94;59.81;;
50333;Laerm;36239;48.132;-1.210;2023-07-29T10:29:43;45.73;37.32;65.74;;
50333;Laerm;36239;48.132;-1.210;2023-07-29T10:32:10;50.64;36.91;77.46;;
50333;Laerm;36239;48.132;-1.210;2023-07-29T10:34:37;42.08;35.66;61.16;;
50333;Laerm;36239;48.132;-1.210;2023-07-29T10:37:03;41.82;35.94;65.05;;
50333;Laerm;36239;48.132;-1.210;2023-07-29T10:39:39;40.31;35.66;55.21;;
50333;Laerm;36239;48.132;-1.210;2023-07-29T10:42:06;46.65;37.12;74.43;;
50333;Laerm;36239;48.132;-1.210;2023-07-29T10:47:23;39.82;35.94;59.81;;
50333;Laerm;36239;48.132;-1.210;2023-07-29T10:49:51;54.56;36.69;81.79;;
50333;Laerm;36239;48.132;-1.210;2023-07-29T10:52:27;42.19;36.45;66.64;;
50333;Laerm;36239;48.132;-1.210;2023-07-29T10:54:54;40.94;36.45;66.98;;
50333;Laerm;36239;48.132;-1.210;2023-07-29T10:59:58;43.50;35.94;70.30;;
50333;Laerm;36239;48.132;-1.210;2023-07-29T11:02:31;48.99;37.52;73.17;;
50333;Laerm;36239;48.132;-1.210;2023-07-29T11:04:58;46.86;36.56;75.47;;
50333;Laerm;36239;48.132;-1.210;2023-07-29T11:07:25;43.07;36.69;64.92;;
50333;Laerm;36239;48.132;-1.210;2023-07-29T11:09:55;46.68;35.94;70.27;;
50333;Laerm;36239;48.132;-1.210;2023-07-29T11:12:37;51.48;36.20;80.23;;
50333;Laerm;36239;48.132;-1.210;2023-07-29T11:17:35;44.23;36.20;67.48;;
50333;Laerm;36239;48.132;-1.210;2023-07-29T11:20:02;48.38;35.66;78.82;;
50333;Laerm;36239;48.132;-1.210;2023-07-29T11:22:29;57.34;35.36;85.75;;
50333;Laerm;36239;48.132;-1.210;2023-07-29T11:24:55;53.55;37.12;78.53;;
50333;Laerm;36239;48.132;-1.210;2023-07-29T11:27:21;43.87;37.32;63.51;;
50333;Laerm;36239;48.132;-1.210;2023-07-29T11:29:47;40.52;36.45;57.93;;
50333;Laerm;36239;48.132;-1.210;2023-07-29T11:32:13;41.71;35.66;64.58;;
50333;Laerm;36239;48.132;-1.210;2023-07-29T11:34:40;43.44;35.94;65.88;;
50333;Laerm;36239;48.132;-1.210;2023-07-29T11:37:08;47.95;36.45;71.57;;
50333;Laerm;36239;48.132;-1.210;2023-07-29T11:39:39;44.65;36.45;68.04;;
50333;Laerm;36239;48.132;-1.210;2023-07-29T11:42:05;43.95;37.32;70.72;;
50333;Laerm;36239;48.132;-1.210;2023-07-29T11:44:31;53.45;37.32;76.47;;
50333;Laerm;36239;48.132;-1.210;2023-07-29T11:46:57;41.23;37.12;65.16;;
50333;Laerm;36239;48.132;-1.210;2023-07-29T11:49:23;43.92;36.69;70.16;;
50333;Laerm;36239;48.132;-1.210;2023-07-29T11:51:49;43.92;36.45;67.62;;
50333;Laerm;36239;48.132;-1.210;2023-07-29T11:54:18;41.71;37.12;63.90;;
50333;Laerm;36239;48.132;-1.210;2023-07-29T11:56:47;40.26;36.20;62.01;;
50333;Laerm;36239;48.132;-1.210;2023-07-29T11:59:13;48.47;35.36;74.37;;
50333;Laerm;36239;48.132;-1.210;2023-07-29T12:01:40;45.35;35.94;72.14;;
50333;Laerm;36239;48.132;-1.210;2023-07-29T12:04:06;49.61;38.21;74.92;;
50333;Laerm;36239;48.132;-1.210;2023-07-29T12:06:32;46.21;36.45;69.64;;
50333;Laerm;36239;48.132;-1.210;2023-07-29T12:08:58;51.72;36.20;80.16;;
50333;Laerm;36239;48.132;-1.210;2023-07-29T12:11:24;49.95;37.52;71.73;;
50333;Laerm;36239;48.132;-1.210;2023-07-29T12:13:52;43.41;36.45;66.75;;
50333;Laerm;36239;48.132;-1.210;2023-07-29T12:16:18;48.65;37.12;71.20;;
50333;Laerm;36239;48.132;-1.210;2023-07-29T12:18:45;42.92;36.45;58.36;;
50333;Laerm;36239;48.132;-1.210;2023-07-29T12:21:11;54.46;35.36;80.33;;
50333;Laerm;36239;48.132;-1.210;2023-07-29T12:23:39;39.86;35.66;61.39;;
50333;Laerm;36239;48.132;-1.210;2023-07-29T12:26:05;39.55;35.66;55.16;;
50333;Laerm;36239;48.132;-1.210;2023-07-29T12:28:31;41.34;35.94;65.16;;
50333;Laerm;36239;48.132;-1.210;2023-07-29T12:30:59;45.72;35.66;72.90;;
50333;Laerm;36239;48.132;-1.210;2023-07-29T12:33:32;41.91;36.91;63.80;;
50333;Laerm;36239;48.132;-1.210;2023-07-29T12:35:58;43.74;37.12;74.38;;
50333;Laerm;36239;48.132;-1.210;2023-07-29T12:38:27;47.92;43.54;59.22;;
50333;Laerm;36239;48.132;-1.210;2023-07-29T12:40:54;47.39;43.14;64.43;;
50333;Laerm;36239;48.132;-1.210;2023-07-29T12:43:20;47.83;42.71;73.48;;
50333;Laerm;36239;48.132;-1.210;2023-07-29T12:45:48;46.49;43.77;57.10;;
50333;Laerm;36239;48.132;-1.210;2023-07-29T12:48:14;52.37;43.58;71.80;;
50333;Laerm;36239;48.132;-1.210;2023-07-29T12:50:41;53.78;43.24;86.16;;
50333;Laerm;36239;48.132;-1.210;2023-07-29T12:53:07;48.02;42.93;64.19;;
50333;Laerm;36239;48.132;-1.210;2023-07-29T12:55:33;50.38;42.47;74.71;;
50333;Laerm;36239;48.132;-1.210;2023-07-29T12:57:59;45.47;42.71;63.12;;
50333;Laerm;36239;48.132;-1.210;2023-07-29T13:00:26;44.58;41.89;58.17;;
50333;Laerm;36239;48.132;-1.210;2023-07-29T13:02:52;45.49;41.22;51.25;;
50333;Laerm;36239;48.132;-1.210;2023-07-29T13:05:18;46.48;39.46;54.46;;
50333;Laerm;36239;48.132;-1.210;2023-07-29T13:07:44;42.24;37.88;57.21;;
50333;Laerm;36239;48.132;-1.210;2023-07-29T13:10:10;41.48;37.52;48.71;;
50333;Laerm;36239;48.132;-1.210;2023-07-29T13:12:37;51.71;38.81;74.56;;
50333;Laerm;36239;48.132;-1.210;2023-07-29T13:15:03;42.53;38.05;65.08;;
50333;Laerm;36239;48.132;-1.210;2023-07-29T13:17:29;44.08;38.37;60.02;;
50333;Laerm;36239;48.132;-1.210;2023-07-29T13:19:55;43.51;41.38;48.01;;
50333;Laerm;36239;48.132;-1.210;2023-07-29T13:22:21;50.91;38.95;80.89;;
50333;Laerm;36239;48.132;-1.210;2023-07-29T13:24:47;53.14;38.05;81.13;;
50333;Laerm;36239;48.132;-1.210;2023-07-29T13:27:13;41.94;37.12;58.44;;
50333;Laerm;36239;48.132;-1.210;2023-07-29T13:29:39;40.74;36.91;50.82;;
50333;Laerm;36239;48.132;-1.210;2023-07-29T13:32:05;42.52;37.32;67.19;;
50333;Laerm;36239;48.132;-1.210;2023-07-29T13:34:31;42.98;38.21;65.74;;
50333;Laerm;36239;48.132;-1.210;2023-07-29T13:36:58;44.51;40.13;64.24;;
50333;Laerm;36239;48.132;-1.210;2023-07-29T13:39:24;43.68;38.37;69.42;;